MMCE

Ciudad del Carmen International Airport

Ciudad del Carmen, Mexico
TAF MMCE 211651Z 2118/2218 12012KT P6SM SCT300 FM220300 12012KT P6SM SCT020 FM221600 12010KT P6SM SCT020
Issued Valid From Valid To
Jun-21 @ 16:51 UTC
(an hour ago)
Jun-21 @ 18:00 UTC
(13 minutes ago)
Jun-22 @ 18:00 UTC
(in 24 hours)
Jun-21 @ 18:00 to Jun-22 @ 03:00
TAF MMCE 211651Z 2118/2218 12012KT P6SM SCT300
Wind Visibility Clouds
120° at 12 knots Greater than 6 miles
  • Scattered at 30,000' AGL
From Jun-22 @ 03:00 to Jun-22 @ 16:00
FM220300 12012KT P6SM SCT020
Wind Visibility Clouds
120° at 12 knots Greater than 6 miles
  • Scattered at 2,000' AGL
From Jun-22 @ 16:00 to Jun-22 @ 18:00
FM221600 12010KT P6SM SCT020
Wind Visibility Clouds
120° at 10 knots Greater than 6 miles
  • Scattered at 2,000' AGL
TAF MMCE 211651Z 2118/2218 12012KT P6SM SCT300 FM220300 12012KT P6SM SCT020 FM221600 12010KT P6SM SCT020
Issued Jun-21 @ 16:51 UTC
(an hour ago)
Valid From Jun-21 @ 18:00 UTC
(13 minutes ago)
Valid To Jun-22 @ 18:00 UTC
(in 24 hours)
Jun-21 @ 18:00 - Jun-22 @ 03:00
Wind Visibility
120° at 12 knots Greater than 6 miles
Clouds
  • Scattered at 30,000' AGL
From Jun-22 @ 03:00 - Jun-22 @ 16:00
Wind Visibility
120° at 12 knots Greater than 6 miles
Clouds
  • Scattered at 2,000' AGL
From Jun-22 @ 16:00 - Jun-22 @ 18:00
Wind Visibility
120° at 10 knots Greater than 6 miles
Clouds
  • Scattered at 2,000' AGL